createdAt,value
2019-06-10T00:02:41.423Z,23.31
2019-06-10T00:08:05.853Z,23.16
2019-06-10T00:13:31.530Z,23.15
2019-06-10T00:18:55.945Z,23.07
2019-06-10T00:24:21.302Z,23.11
2019-06-10T00:29:45.769Z,23.02
2019-06-10T00:35:12.155Z,23.10
2019-06-10T00:40:35.305Z,23.11
2019-06-10T00:46:00.708Z,23.12
2019-06-10T00:51:24.829Z,23.00
2019-06-10T00:56:48.414Z,22.89
2019-06-10T01:02:14.450Z,22.89
2019-06-10T01:07:41.218Z,22.97
2019-06-10T01:13:05.093Z,22.77
2019-06-10T01:18:35.619Z,22.64
2019-06-10T01:23:55.306Z,22.62
2019-06-10T01:29:21.089Z,22.55
2019-06-10T01:34:44.818Z,22.57
2019-06-10T01:40:13.122Z,22.59
2019-06-10T01:45:35.516Z,22.49
2019-06-10T01:51:01.843Z,22.38
2019-06-10T01:56:25.792Z,22.40
2019-06-10T02:02:04.152Z,22.42
2019-06-10T02:07:31.827Z,22.42
2019-06-10T02:12:56.360Z,22.38
2019-06-10T02:18:22.460Z,22.32
2019-06-10T02:23:47.069Z,22.32
2019-06-10T02:29:13.180Z,22.17
2019-06-10T02:34:45.997Z,22.05
2019-06-10T02:40:04.472Z,22.05
2019-06-10T02:45:33.681Z,22.03
2019-06-10T02:51:07.880Z,21.88
2019-06-10T02:56:36.206Z,21.19
2019-06-10T03:01:57.700Z,20.85
2019-06-10T03:07:26.779Z,20.70
2019-06-10T03:12:48.071Z,20.66
2019-06-10T03:18:12.913Z,20.67
2019-06-10T03:23:37.145Z,20.79
2019-06-10T03:29:02.669Z,21.02
2019-06-10T03:34:36.165Z,21.00
2019-06-10T03:39:54.874Z,20.65
2019-06-10T03:45:21.140Z,19.90
2019-06-10T03:50:45.755Z,19.29
2019-06-10T03:56:09.451Z,18.85
2019-06-10T04:01:35.231Z,18.52
2019-06-10T04:07:03.572Z,18.32
2019-06-10T04:12:27.527Z,18.13
2019-06-10T04:17:53.070Z,18.05
2019-06-10T04:23:17.736Z,18.04
2019-06-10T04:28:42.954Z,18.09
2019-06-10T04:34:06.966Z,18.15
2019-06-10T04:39:30.636Z,18.30
2019-06-10T04:44:55.258Z,18.40
2019-06-10T04:50:27.039Z,18.27
2019-06-10T04:55:45.227Z,18.26
2019-06-10T05:01:12.009Z,18.08
2019-06-10T05:06:35.652Z,18.07
2019-06-10T05:11:59.755Z,18.19
2019-06-10T05:17:26.128Z,18.38
2019-06-10T05:22:50.036Z,18.56
2019-06-10T05:28:13.971Z,18.70
2019-06-10T05:33:38.439Z,18.87
2019-06-10T05:39:03.201Z,19.24
2019-06-10T05:44:28.450Z,19.68
2019-06-10T05:49:53.045Z,19.79
2019-06-10T05:55:17.843Z,20.02
2019-06-10T06:00:42.894Z,20.24
2019-06-10T06:06:07.368Z,20.33
2019-06-10T06:11:34.023Z,20.25
2019-06-10T06:16:57.326Z,20.55
2019-06-10T06:22:22.195Z,21.29
2019-06-10T06:27:45.796Z,22.39
2019-06-10T06:33:09.726Z,24.37
2019-06-10T06:38:35.353Z,24.25
2019-06-10T06:43:59.074Z,25.28
2019-06-10T06:49:23.499Z,25.44
2019-06-10T06:54:47.096Z,26.07
2019-06-10T07:00:37.437Z,26.91
2019-06-10T07:05:41.052Z,25.48
2019-06-10T07:11:05.221Z,25.09
2019-06-10T07:16:31.909Z,24.40
2019-06-10T07:22:08.865Z,24.72
2019-06-10T07:27:22.628Z,24.62
2019-06-10T07:32:47.391Z,25.83
2019-06-10T07:38:12.442Z,25.83
2019-06-10T07:43:40.853Z,25.87
2019-06-10T07:49:03.386Z,25.64
2019-06-10T07:54:27.986Z,26.26
2019-06-10T07:59:52.748Z,26.54
2019-06-10T08:05:17.627Z,26.62
2019-06-10T08:10:44.854Z,26.64
2019-06-10T08:16:08.359Z,26.05
2019-06-10T08:21:32.708Z,26.45
2019-06-10T08:26:57.313Z,27.38
2019-06-10T08:32:24.247Z,27.62
2019-06-10T08:37:47.457Z,27.96
2019-06-10T08:43:13.392Z,28.98
2019-06-10T08:48:37.558Z,28.64
2019-06-10T08:54:02.551Z,28.77
2019-06-10T08:59:27.579Z,29.96
2019-06-10T09:04:53.598Z,29.93
2019-06-10T09:10:17.786Z,30.68
2019-06-10T09:15:44.997Z,30.55
2019-06-10T09:21:07.259Z,30.71
2019-06-10T09:26:33.690Z,30.21
2019-06-10T09:31:57.315Z,30.03
2019-06-10T09:37:23.334Z,30.37
2019-06-10T09:42:49.700Z,30.61
2019-06-10T09:48:13.608Z,31.09
2019-06-10T09:53:42.776Z,30.90
2019-06-10T09:59:04.037Z,30.68
2019-06-10T10:04:28.638Z,30.32
2019-06-10T10:09:57.003Z,30.94
2019-06-10T10:15:27.473Z,30.86
2019-06-10T10:20:48.072Z,30.85
2019-06-10T10:26:13.196Z,30.16
2019-06-10T10:31:36.173Z,30.72
2019-06-10T10:37:02.743Z,31.24
2019-06-10T10:42:39.146Z,31.28
2019-06-10T10:47:56.389Z,30.88
2019-06-10T10:53:18.157Z,31.87
2019-06-10T10:58:45.341Z,33.49
2019-06-10T11:04:08.517Z,34.22
2019-06-10T11:09:33.212Z,33.83
2019-06-10T11:15:01.912Z,32.10
2019-06-10T11:20:23.776Z,31.88
2019-06-10T11:25:48.259Z,31.42
2019-06-10T11:31:13.866Z,31.23
2019-06-10T11:36:38.580Z,32.47
2019-06-10T11:42:03.989Z,31.94
2019-06-10T11:47:28.701Z,32.07
2019-06-10T11:52:55.461Z,31.36
2019-06-10T11:58:17.893Z,31.92
2019-06-10T12:03:43.417Z,32.44
2019-06-10T12:09:09.242Z,33.14
2019-06-10T12:14:33.966Z,32.14
2019-06-10T12:20:02.543Z,32.45
2019-06-10T12:25:34.715Z,32.79
2019-06-10T12:30:50.329Z,33.50
2019-06-10T12:36:15.129Z,33.55
2019-06-10T12:41:39.102Z,32.71
2019-06-10T12:47:07.582Z,33.01
2019-06-10T12:52:29.699Z,32.94
2019-06-10T12:57:54.399Z,33.70
2019-06-10T13:03:19.156Z,34.92
2019-06-10T13:08:45.085Z,34.57
2019-06-10T13:14:09.296Z,35.26
2019-06-10T13:19:35.166Z,36.12
2019-06-10T13:25:00.644Z,36.99
2019-06-10T13:30:25.523Z,37.29
2019-06-10T13:35:49.809Z,36.58
2019-06-10T13:41:13.892Z,36.71
2019-06-10T13:46:37.753Z,34.76
2019-06-10T13:52:09.132Z,34.52
2019-06-10T13:57:28.909Z,35.01
2019-06-10T14:02:52.604Z,35.66
2019-06-10T14:08:17.208Z,35.92
2019-06-10T14:13:43.134Z,35.76
2019-06-10T14:19:08.985Z,36.76
2019-06-10T14:24:33.044Z,36.99
2019-06-10T14:29:58.175Z,36.69
2019-06-10T14:35:22.864Z,36.70
2019-06-10T14:40:47.655Z,36.40
2019-06-10T14:46:14.346Z,35.42
2019-06-10T14:51:37.285Z,35.34
2019-06-10T14:57:02.648Z,33.76
2019-06-10T15:02:26.540Z,34.06
2019-06-10T15:07:52.877Z,34.78
2019-06-10T15:13:16.800Z,34.52
2019-06-10T15:18:43.192Z,36.50
2019-06-10T15:24:08.180Z,36.94
2019-06-10T15:29:32.821Z,36.29
2019-06-10T15:34:57.989Z,35.68
2019-06-10T15:40:23.169Z,34.93
2019-06-10T15:45:47.899Z,36.71
2019-06-10T15:51:15.340Z,37.44
2019-06-10T15:56:48.725Z,37.11
2019-06-10T16:02:04.695Z,37.55
2019-06-10T16:07:28.295Z,37.24
2019-06-10T16:12:52.933Z,36.92
2019-06-10T16:18:18.209Z,37.57
2019-06-10T16:23:43.016Z,37.73
2019-06-10T16:29:07.453Z,37.68
2019-06-10T16:34:32.554Z,37.42
2019-06-10T16:39:56.530Z,36.23
2019-06-10T16:45:27.670Z,36.35
2019-06-10T16:50:47.508Z,35.75
2019-06-10T16:56:12.180Z,35.48
2019-06-10T17:01:36.891Z,34.83
2019-06-10T17:07:02.138Z,34.29
2019-06-10T17:12:27.595Z,34.06
2019-06-10T17:17:52.588Z,32.77
2019-06-10T17:23:27.068Z,32.02
2019-06-10T17:28:49.242Z,31.84
2019-06-10T17:34:14.215Z,31.96
2019-06-10T17:39:38.243Z,32.03
2019-06-10T17:45:02.512Z,32.34
2019-06-10T17:50:28.055Z,32.79
2019-06-10T17:55:52.969Z,32.62
2019-06-10T18:01:18.163Z,32.38
2019-06-10T18:06:42.921Z,31.95
2019-06-10T18:12:07.534Z,31.18
2019-06-10T18:17:34.854Z,30.69
2019-06-10T18:22:57.537Z,30.42
2019-06-10T18:28:22.635Z,30.12
2019-06-10T18:33:47.570Z,29.85
2019-06-10T18:39:12.354Z,29.46
2019-06-10T18:44:37.556Z,29.16
2019-06-10T18:50:02.516Z,28.96
2019-06-10T18:55:26.200Z,28.90
2019-06-10T19:01:00.600Z,28.53
2019-06-10T19:06:15.685Z,28.40
2019-06-10T19:11:40.976Z,27.97
2019-06-10T19:17:06.599Z,27.81
2019-06-10T19:22:33.097Z,27.61
2019-06-10T19:27:56.251Z,27.41
2019-06-10T19:33:20.141Z,27.30
2019-06-10T19:38:44.880Z,27.09
2019-06-10T19:44:08.852Z,26.96
2019-06-10T19:49:34.173Z,26.88
2019-06-10T19:54:58.004Z,26.69
2019-06-10T20:00:23.491Z,26.43
2019-06-10T20:05:48.350Z,26.43
2019-06-10T20:11:14.327Z,26.37
2019-06-10T20:16:39.814Z,26.24
2019-06-10T20:22:04.539Z,26.11
2019-06-10T20:27:29.130Z,26.11
2019-06-10T20:32:56.260Z,26.07
2019-06-10T20:38:19.300Z,25.98
2019-06-10T20:43:45.620Z,26.01
2019-06-10T20:49:09.524Z,25.98
2019-06-10T20:54:34.169Z,25.90
2019-06-10T20:59:58.745Z,25.97
2019-06-10T21:05:23.534Z,25.91
2019-06-10T21:10:49.814Z,25.85
2019-06-10T21:16:13.455Z,25.85
2019-06-10T21:21:38.375Z,25.70
2019-06-10T21:27:02.796Z,25.70
2019-06-10T21:32:26.495Z,25.56
2019-06-10T21:37:51.721Z,25.51
2019-06-10T21:43:15.698Z,25.51
2019-06-10T21:48:42.943Z,25.50
2019-06-10T21:54:06.810Z,25.43
2019-06-10T21:59:32.166Z,25.37
2019-06-10T22:04:57.284Z,25.20
2019-06-10T22:10:22.939Z,24.80
2019-06-10T22:15:48.274Z,24.56
2019-06-10T22:21:14.734Z,24.47
2019-06-10T22:26:39.164Z,24.33
2019-06-10T22:32:03.931Z,24.24
2019-06-10T22:37:28.366Z,24.01
2019-06-10T22:42:55.144Z,23.92
2019-06-10T22:48:18.662Z,23.68
2019-06-10T22:53:43.535Z,23.70
2019-06-10T22:59:07.636Z,23.81
2019-06-10T23:04:33.151Z,23.65
2019-06-10T23:09:59.067Z,23.54
2019-06-10T23:15:23.969Z,23.41
2019-06-10T23:20:49.251Z,23.24
2019-06-10T23:26:13.146Z,23.45
2019-06-10T23:31:49.575Z,23.35
2019-06-10T23:37:03.157Z,23.49
2019-06-10T23:42:27.248Z,23.40
2019-06-10T23:47:52.964Z,23.39
2019-06-10T23:53:16.818Z,23.19
2019-06-10T23:58:43.178Z,23.22
